Terminal Aerodrome Forecast
Issued by NWS

Home | Current Version | Previous Version | Text Only | Print | Product List | Glossary Off
Versions: 1 2 3 4 5 6 7 8 9 10 11 12 13 14 15 16 17 18 19 20 21 22 23 24 25 26 27 28 29 30 31 32 33 34 35 36 37 38 39 40 41 42

000
FTUS43 KGRB 091133
TAFRHI
TAF
KRHI 091133Z 0912/1012 33010KT 6SM -SN BR SCT020 OVC035
      TEMPO 0912/0916 3SM -SN BKN020
     FM091600 33011G18KT 6SM -SN BR BKN035 OVC070
      TEMPO 0918/0922 3SM -SN OVC020
     FM092200 32008KT P6SM -SN SCT020 OVC035=

USA.gov is the U.S. government's official web portal to all federal, state and local government web resources and services.